sensor_id;sensor_type;location;lat;lon;timestamp;P1;durP1;ratioP1;P2;durP2;ratioP2
75320;SDS011;68337;52.196;5.660;2024-03-23T00:55:27;14.27;;;7.82;;
75320;SDS011;68337;52.196;5.660;2024-03-23T00:57:53;25.73;;;8.95;;
75320;SDS011;68337;52.196;5.660;2024-03-23T01:00:18;25.92;;;9.45;;
75320;SDS011;68337;52.196;5.660;2024-03-23T01:02:44;21.67;;;9.55;;
75320;SDS011;68337;52.196;5.660;2024-03-23T01:05:10;30.60;;;10.90;;
75320;SDS011;68337;52.196;5.660;2024-03-23T01:07:35;26.05;;;10.77;;
75320;SDS011;68337;52.196;5.660;2024-03-23T01:10:01;20.00;;;9.60;;
75320;SDS011;68337;52.196;5.660;2024-03-23T01:12:27;18.48;;;8.75;;
75320;SDS011;68337;52.196;5.660;2024-03-23T01:14:52;23.50;;;8.90;;
75320;SDS011;68337;52.196;5.660;2024-03-23T01:17:18;23.23;;;9.02;;
75320;SDS011;68337;52.196;5.660;2024-03-23T01:19:44;20.95;;;8.75;;
75320;SDS011;68337;52.196;5.660;2024-03-23T01:22:09;24.02;;;8.95;;
75320;SDS011;68337;52.196;5.660;2024-03-23T01:24:35;16.98;;;9.10;;
75320;SDS011;68337;52.196;5.660;2024-03-23T01:27:01;27.33;;;8.82;;
75320;SDS011;68337;52.196;5.660;2024-03-23T01:29:27;22.38;;;8.50;;
75320;SDS011;68337;52.196;5.660;2024-03-23T01:31:53;24.30;;;8.35;;
75320;SDS011;68337;52.196;5.660;2024-03-23T01:34:18;18.33;;;8.82;;
75320;SDS011;68337;52.196;5.660;2024-03-23T01:36:45;24.17;;;9.00;;
75320;SDS011;68337;52.196;5.660;2024-03-23T01:39:11;22.55;;;8.95;;
75320;SDS011;68337;52.196;5.660;2024-03-23T01:41:38;17.55;;;7.75;;
75320;SDS011;68337;52.196;5.660;2024-03-23T01:44:07;18.73;;;8.05;;
75320;SDS011;68337;52.196;5.660;2024-03-23T01:46:33;17.48;;;7.70;;
75320;SDS011;68337;52.196;5.660;2024-03-23T01:49:00;14.27;;;7.72;;
75320;SDS011;68337;52.196;5.660;2024-03-23T01:51:26;13.73;;;7.07;;
75320;SDS011;68337;52.196;5.660;2024-03-23T01:53:53;14.25;;;6.50;;
75320;SDS011;68337;52.196;5.660;2024-03-23T01:56:20;13.82;;;7.05;;
75320;SDS011;68337;52.196;5.660;2024-03-23T01:58:46;12.10;;;6.53;;
75320;SDS011;68337;52.196;5.660;2024-03-23T02:01:11;10.65;;;5.50;;
75320;SDS011;68337;52.196;5.660;2024-03-23T02:03:37;7.80;;;4.88;;
75320;SDS011;68337;52.196;5.660;2024-03-23T02:06:03;13.07;;;5.53;;
75320;SDS011;68337;52.196;5.660;2024-03-23T02:08:30;9.95;;;5.72;;
75320;SDS011;68337;52.196;5.660;2024-03-23T02:10:56;5.45;;;4.35;;
75320;SDS011;68337;52.196;5.660;2024-03-23T02:13:23;8.00;;;5.15;;
75320;SDS011;68337;52.196;5.660;2024-03-23T02:15:49;6.30;;;5.47;;
75320;SDS011;68337;52.196;5.660;2024-03-23T02:18:15;6.38;;;4.72;;
75320;SDS011;68337;52.196;5.660;2024-03-23T02:20:41;7.82;;;4.15;;
75320;SDS011;68337;52.196;5.660;2024-03-23T02:23:13;8.10;;;4.60;;
75320;SDS011;68337;52.196;5.660;2024-03-23T02:25:39;4.97;;;4.47;;
75320;SDS011;68337;52.196;5.660;2024-03-23T02:28:05;6.88;;;4.65;;
75320;SDS011;68337;52.196;5.660;2024-03-23T02:30:30;8.63;;;5.05;;
75320;SDS011;68337;52.196;5.660;2024-03-23T02:32:56;8.75;;;4.57;;
75320;SDS011;68337;52.196;5.660;2024-03-23T02:35:22;7.70;;;4.68;;
75320;SDS011;68337;52.196;5.660;2024-03-23T02:37:47;10.00;;;5.18;;
75320;SDS011;68337;52.196;5.660;2024-03-23T02:40:14;10.23;;;5.10;;
75320;SDS011;68337;52.196;5.660;2024-03-23T02:42:41;9.02;;;4.85;;
75320;SDS011;68337;52.196;5.660;2024-03-23T02:45:06;9.32;;;5.20;;
75320;SDS011;68337;52.196;5.660;2024-03-23T02:47:32;10.05;;;4.60;;
75320;SDS011;68337;52.196;5.660;2024-03-23T02:49:58;7.63;;;4.80;;
75320;SDS011;68337;52.196;5.660;2024-03-23T02:52:24;11.70;;;5.90;;
75320;SDS011;68337;52.196;5.660;2024-03-23T02:54:50;9.90;;;5.65;;
75320;SDS011;68337;52.196;5.660;2024-03-23T02:57:15;11.80;;;6.88;;
75320;SDS011;68337;52.196;5.660;2024-03-23T02:59:41;10.90;;;6.38;;
75320;SDS011;68337;52.196;5.660;2024-03-23T03:02:07;10.82;;;6.22;;
75320;SDS011;68337;52.196;5.660;2024-03-23T03:04:33;12.80;;;6.68;;
75320;SDS011;68337;52.196;5.660;2024-03-23T03:06:58;14.23;;;7.18;;
75320;SDS011;68337;52.196;5.660;2024-03-23T03:09:25;12.20;;;7.07;;
75320;SDS011;68337;52.196;5.660;2024-03-23T03:11:51;16.33;;;7.18;;
75320;SDS011;68337;52.196;5.660;2024-03-23T03:14:16;15.93;;;7.53;;
75320;SDS011;68337;52.196;5.660;2024-03-23T03:16:42;15.80;;;7.70;;
75320;SDS011;68337;52.196;5.660;2024-03-23T03:19:08;18.35;;;8.70;;
75320;SDS011;68337;52.196;5.660;2024-03-23T03:21:35;19.10;;;8.50;;
75320;SDS011;68337;52.196;5.660;2024-03-23T03:24:02;23.52;;;8.93;;
75320;SDS011;68337;52.196;5.660;2024-03-23T03:26:28;23.17;;;9.00;;
75320;SDS011;68337;52.196;5.660;2024-03-23T03:28:54;20.23;;;9.98;;
75320;SDS011;68337;52.196;5.660;2024-03-23T03:31:19;28.73;;;8.93;;
75320;SDS011;68337;52.196;5.660;2024-03-23T03:33:45;25.50;;;10.15;;
75320;SDS011;68337;52.196;5.660;2024-03-23T03:36:11;19.83;;;9.40;;
75320;SDS011;68337;52.196;5.660;2024-03-23T03:38:37;17.83;;;9.63;;
75320;SDS011;68337;52.196;5.660;2024-03-23T03:41:03;29.52;;;8.55;;
75320;SDS011;68337;52.196;5.660;2024-03-23T03:43:31;23.10;;;9.75;;
75320;SDS011;68337;52.196;5.660;2024-03-23T03:45:57;19.35;;;8.63;;
75320;SDS011;68337;52.196;5.660;2024-03-23T03:48:24;16.52;;;8.15;;
75320;SDS011;68337;52.196;5.660;2024-03-23T03:50:49;18.70;;;8.23;;
75320;SDS011;68337;52.196;5.660;2024-03-23T03:53:15;17.52;;;8.30;;
75320;SDS011;68337;52.196;5.660;2024-03-23T03:55:41;14.85;;;8.23;;
75320;SDS011;68337;52.196;5.660;2024-03-23T03:58:07;19.80;;;8.90;;
75320;SDS011;68337;52.196;5.660;2024-03-23T04:00:33;21.42;;;7.88;;
75320;SDS011;68337;52.196;5.660;2024-03-23T04:02:58;19.70;;;7.68;;
75320;SDS011;68337;52.196;5.660;2024-03-23T04:05:24;21.90;;;7.10;;
75320;SDS011;68337;52.196;5.660;2024-03-23T04:07:50;14.88;;;7.30;;
75320;SDS011;68337;52.196;5.660;2024-03-23T04:10:16;15.13;;;8.32;;
75320;SDS011;68337;52.196;5.660;2024-03-23T04:12:42;11.57;;;6.68;;
75320;SDS011;68337;52.196;5.660;2024-03-23T04:15:09;14.82;;;7.13;;
75320;SDS011;68337;52.196;5.660;2024-03-23T04:17:35;18.45;;;8.52;;
75320;SDS011;68337;52.196;5.660;2024-03-23T04:20:01;15.95;;;7.57;;
75320;SDS011;68337;52.196;5.660;2024-03-23T04:22:28;10.60;;;7.07;;
75320;SDS011;68337;52.196;5.660;2024-03-23T04:24:54;16.63;;;7.30;;
75320;SDS011;68337;52.196;5.660;2024-03-23T04:27:21;14.10;;;7.40;;
75320;SDS011;68337;52.196;5.660;2024-03-23T04:29:47;13.18;;;7.72;;
75320;SDS011;68337;52.196;5.660;2024-03-23T04:32:14;11.02;;;5.90;;
75320;SDS011;68337;52.196;5.660;2024-03-23T04:34:41;14.88;;;6.95;;
75320;SDS011;68337;52.196;5.660;2024-03-23T04:37:07;7.70;;;6.00;;
75320;SDS011;68337;52.196;5.660;2024-03-23T04:39:33;13.32;;;6.82;;
75320;SDS011;68337;52.196;5.660;2024-03-23T04:41:58;14.80;;;6.50;;
75320;SDS011;68337;52.196;5.660;2024-03-23T04:44:24;14.75;;;6.47;;
75320;SDS011;68337;52.196;5.660;2024-03-23T04:46:50;18.38;;;7.95;;
75320;SDS011;68337;52.196;5.660;2024-03-23T04:49:15;20.80;;;7.60;;
75320;SDS011;68337;52.196;5.660;2024-03-23T04:51:41;16.13;;;6.75;;
75320;SDS011;68337;52.196;5.660;2024-03-23T04:54:11;15.25;;;8.35;;
75320;SDS011;68337;52.196;5.660;2024-03-23T04:56:37;17.35;;;7.40;;
75320;SDS011;68337;52.196;5.660;2024-03-23T04:59:03;19.13;;;8.82;;
75320;SDS011;68337;52.196;5.660;2024-03-23T05:01:30;23.05;;;8.32;;
75320;SDS011;68337;52.196;5.660;2024-03-23T05:03:56;21.90;;;8.00;;
75320;SDS011;68337;52.196;5.660;2024-03-23T05:06:22;26.88;;;9.13;;
75320;SDS011;68337;52.196;5.660;2024-03-23T05:08:48;13.43;;;7.35;;
75320;SDS011;68337;52.196;5.660;2024-03-23T05:11:14;19.63;;;7.80;;
75320;SDS011;68337;52.196;5.660;2024-03-23T05:13:41;19.83;;;7.28;;
75320;SDS011;68337;52.196;5.660;2024-03-23T05:16:07;23.33;;;8.73;;
75320;SDS011;68337;52.196;5.660;2024-03-23T05:18:33;24.27;;;7.20;;
75320;SDS011;68337;52.196;5.660;2024-03-23T05:20:59;20.13;;;6.78;;
75320;SDS011;68337;52.196;5.660;2024-03-23T05:23:25;14.23;;;7.30;;
75320;SDS011;68337;52.196;5.660;2024-03-23T05:25:52;21.90;;;8.57;;
75320;SDS011;68337;52.196;5.660;2024-03-23T05:28:18;23.15;;;8.30;;
75320;SDS011;68337;52.196;5.660;2024-03-23T05:30:49;26.80;;;7.72;;
75320;SDS011;68337;52.196;5.660;2024-03-23T05:33:15;23.35;;;7.85;;
75320;SDS011;68337;52.196;5.660;2024-03-23T05:35:42;29.67;;;9.07;;
75320;SDS011;68337;52.196;5.660;2024-03-23T05:38:07;22.45;;;8.68;;
75320;SDS011;68337;52.196;5.660;2024-03-23T05:40:33;18.35;;;7.25;;
75320;SDS011;68337;52.196;5.660;2024-03-23T05:43:02;18.02;;;7.28;;
75320;SDS011;68337;52.196;5.660;2024-03-23T05:45:29;26.75;;;7.88;;
75320;SDS011;68337;52.196;5.660;2024-03-23T05:47:54;20.83;;;7.88;;
75320;SDS011;68337;52.196;5.660;2024-03-23T05:50:22;23.85;;;8.40;;
75320;SDS011;68337;52.196;5.660;2024-03-23T05:52:48;19.35;;;7.78;;
75320;SDS011;68337;52.196;5.660;2024-03-23T05:55:14;22.48;;;8.00;;
75320;SDS011;68337;52.196;5.660;2024-03-23T05:57:40;23.05;;;7.22;;
75320;SDS011;68337;52.196;5.660;2024-03-23T06:00:06;16.08;;;7.82;;
75320;SDS011;68337;52.196;5.660;2024-03-23T06:02:41;16.48;;;6.97;;
75320;SDS011;68337;52.196;5.660;2024-03-23T06:05:10;15.45;;;6.20;;
75320;SDS011;68337;52.196;5.660;2024-03-23T06:07:36;12.52;;;5.55;;
75320;SDS011;68337;52.196;5.660;2024-03-23T06:10:02;20.52;;;5.80;;
75320;SDS011;68337;52.196;5.660;2024-03-23T06:12:29;14.57;;;6.13;;
75320;SDS011;68337;52.196;5.660;2024-03-23T06:14:54;24.48;;;5.80;;
75320;SDS011;68337;52.196;5.660;2024-03-23T06:17:20;16.98;;;5.35;;
75320;SDS011;68337;52.196;5.660;2024-03-23T06:19:46;22.70;;;5.50;;
75320;SDS011;68337;52.196;5.660;2024-03-23T06:22:11;21.08;;;4.47;;
75320;SDS011;68337;52.196;5.660;2024-03-23T06:24:37;12.85;;;5.05;;
75320;SDS011;68337;52.196;5.660;2024-03-23T06:27:03;18.42;;;5.53;;
75320;SDS011;68337;52.196;5.660;2024-03-23T06:29:29;16.45;;;4.40;;
75320;SDS011;68337;52.196;5.660;2024-03-23T06:31:55;11.60;;;4.10;;
75320;SDS011;68337;52.196;5.660;2024-03-23T06:34:22;11.73;;;4.35;;
75320;SDS011;68337;52.196;5.660;2024-03-23T06:36:48;16.02;;;3.95;;
75320;SDS011;68337;52.196;5.660;2024-03-23T06:39:14;16.48;;;3.92;;
75320;SDS011;68337;52.196;5.660;2024-03-23T06:41:42;13.75;;;4.15;;
75320;SDS011;68337;52.196;5.660;2024-03-23T06:44:08;11.65;;;4.18;;
75320;SDS011;68337;52.196;5.660;2024-03-23T06:46:33;12.68;;;3.58;;
75320;SDS011;68337;52.196;5.660;2024-03-23T06:48:59;14.02;;;3.70;;
75320;SDS011;68337;52.196;5.660;2024-03-23T06:51:25;11.18;;;3.22;;
75320;SDS011;68337;52.196;5.660;2024-03-23T06:53:51;16.02;;;3.97;;
75320;SDS011;68337;52.196;5.660;2024-03-23T06:56:16;11.27;;;4.13;;
75320;SDS011;68337;52.196;5.660;2024-03-23T06:58:42;15.02;;;4.43;;
75320;SDS011;68337;52.196;5.660;2024-03-23T07:01:08;9.32;;;2.80;;
75320;SDS011;68337;52.196;5.660;2024-03-23T07:03:33;13.60;;;3.08;;
75320;SDS011;68337;52.196;5.660;2024-03-23T07:05:59;17.02;;;4.10;;
75320;SDS011;68337;52.196;5.660;2024-03-23T07:08:25;11.35;;;3.28;;
75320;SDS011;68337;52.196;5.660;2024-03-23T07:10:51;12.73;;;3.38;;
75320;SDS011;68337;52.196;5.660;2024-03-23T07:13:16;15.60;;;3.47;;
75320;SDS011;68337;52.196;5.660;2024-03-23T07:15:42;17.23;;;3.83;;
75320;SDS011;68337;52.196;5.660;2024-03-23T07:18:08;9.95;;;3.92;;
75320;SDS011;68337;52.196;5.660;2024-03-23T07:20:34;18.73;;;4.60;;
75320;SDS011;68337;52.196;5.660;2024-03-23T07:23:00;13.27;;;4.95;;
75320;SDS011;68337;52.196;5.660;2024-03-23T07:25:25;21.70;;;5.25;;
75320;SDS011;68337;52.196;5.660;2024-03-23T07:27:54;17.40;;;4.30;;
75320;SDS011;68337;52.196;5.660;2024-03-23T07:30:19;13.43;;;3.88;;
75320;SDS011;68337;52.196;5.660;2024-03-23T07:32:45;12.18;;;3.78;;
75320;SDS011;68337;52.196;5.660;2024-03-23T07:35:11;9.43;;;4.30;;
75320;SDS011;68337;52.196;5.660;2024-03-23T07:37:37;9.27;;;4.80;;
75320;SDS011;68337;52.196;5.660;2024-03-23T07:40:02;16.38;;;4.70;;
75320;SDS011;68337;52.196;5.660;2024-03-23T07:42:29;15.43;;;3.80;;
75320;SDS011;68337;52.196;5.660;2024-03-23T07:44:54;16.73;;;4.00;;
75320;SDS011;68337;52.196;5.660;2024-03-23T07:47:22;6.45;;;3.67;;
75320;SDS011;68337;52.196;5.660;2024-03-23T07:49:47;15.52;;;4.85;;
75320;SDS011;68337;52.196;5.660;2024-03-23T07:52:13;20.27;;;4.28;;
75320;SDS011;68337;52.196;5.660;2024-03-23T07:54:39;14.35;;;3.97;;
75320;SDS011;68337;52.196;5.660;2024-03-23T07:57:05;14.77;;;4.20;;
75320;SDS011;68337;52.196;5.660;2024-03-23T07:59:31;14.55;;;3.92;;
75320;SDS011;68337;52.196;5.660;2024-03-23T08:01:59;18.02;;;3.65;;
75320;SDS011;68337;52.196;5.660;2024-03-23T08:04:25;11.52;;;3.25;;
75320;SDS011;68337;52.196;5.660;2024-03-23T08:06:52;11.45;;;4.25;;
75320;SDS011;68337;52.196;5.660;2024-03-23T08:09:17;11.93;;;3.25;;
75320;SDS011;68337;52.196;5.660;2024-03-23T08:11:43;13.73;;;3.55;;
75320;SDS011;68337;52.196;5.660;2024-03-23T08:14:11;14.73;;;3.63;;
75320;SDS011;68337;52.196;5.660;2024-03-23T08:16:37;11.18;;;3.97;;
75320;SDS011;68337;52.196;5.660;2024-03-23T08:19:03;14.95;;;3.22;;
75320;SDS011;68337;52.196;5.660;2024-03-23T08:21:28;13.32;;;3.55;;
75320;SDS011;68337;52.196;5.660;2024-03-23T08:23:54;12.88;;;3.35;;
75320;SDS011;68337;52.196;5.660;2024-03-23T08:26:20;13.18;;;3.38;;
75320;SDS011;68337;52.196;5.660;2024-03-23T08:28:46;12.05;;;2.90;;
75320;SDS011;68337;52.196;5.660;2024-03-23T08:31:13;12.07;;;3.80;;
75320;SDS011;68337;52.196;5.660;2024-03-23T08:33:40;11.40;;;3.03;;
75320;SDS011;68337;52.196;5.660;2024-03-23T08:36:08;15.02;;;2.95;;
75320;SDS011;68337;52.196;5.660;2024-03-23T08:38:37;15.10;;;2.95;;
75320;SDS011;68337;52.196;5.660;2024-03-23T08:41:08;11.93;;;2.17;;
75320;SDS011;68337;52.196;5.660;2024-03-23T08:43:35;7.93;;;2.45;;
75320;SDS011;68337;52.196;5.660;2024-03-23T08:46:03;10.93;;;2.65;;
75320;SDS011;68337;52.196;5.660;2024-03-23T08:48:31;10.55;;;2.60;;
75320;SDS011;68337;52.196;5.660;2024-03-23T08:51:03;9.60;;;2.42;;
75320;SDS011;68337;52.196;5.660;2024-03-23T08:53:31;13.68;;;2.33;;
75320;SDS011;68337;52.196;5.660;2024-03-23T08:55:58;14.13;;;3.03;;
75320;SDS011;68337;52.196;5.660;2024-03-23T08:58:27;6.40;;;2.10;;
75320;SDS011;68337;52.196;5.660;2024-03-23T09:00:53;4.25;;;2.38;;
75320;SDS011;68337;52.196;5.660;2024-03-23T09:03:22;11.52;;;2.75;;
75320;SDS011;68337;52.196;5.660;2024-03-23T09:05:49;10.50;;;2.15;;
75320;SDS011;68337;52.196;5.660;2024-03-23T09:08:15;20.55;;;2.95;;
75320;SDS011;68337;52.196;5.660;2024-03-23T09:10:41;13.60;;;2.13;;
75320;SDS011;68337;52.196;5.660;2024-03-23T09:13:07;9.80;;;2.20;;
75320;SDS011;68337;52.196;5.660;2024-03-23T09:15:34;7.05;;;2.30;;
75320;SDS011;68337;52.196;5.660;2024-03-23T09:18:01;8.48;;;1.95;;
75320;SDS011;68337;52.196;5.660;2024-03-23T09:20:27;13.05;;;2.42;;
75320;SDS011;68337;52.196;5.660;2024-03-23T09:22:53;5.88;;;1.88;;
75320;SDS011;68337;52.196;5.660;2024-03-23T09:25:19;11.30;;;2.10;;
75320;SDS011;68337;52.196;5.660;2024-03-23T09:27:46;6.03;;;1.77;;
75320;SDS011;68337;52.196;5.660;2024-03-23T09:30:12;6.75;;;1.95;;
75320;SDS011;68337;52.196;5.660;2024-03-23T09:32:38;10.95;;;2.33;;
75320;SDS011;68337;52.196;5.660;2024-03-23T09:35:04;7.28;;;1.92;;
75320;SDS011;68337;52.196;5.660;2024-03-23T09:37:30;6.20;;;1.75;;
75320;SDS011;68337;52.196;5.660;2024-03-23T09:39:56;6.28;;;1.40;;
75320;SDS011;68337;52.196;5.660;2024-03-23T09:42:21;9.75;;;1.50;;
75320;SDS011;68337;52.196;5.660;2024-03-23T09:44:47;8.48;;;1.88;;
75320;SDS011;68337;52.196;5.660;2024-03-23T09:47:15;9.70;;;1.75;;
75320;SDS011;68337;52.196;5.660;2024-03-23T09:49:42;4.40;;;1.90;;
75320;SDS011;68337;52.196;5.660;2024-03-23T09:52:08;9.80;;;2.47;;
75320;SDS011;68337;52.196;5.660;2024-03-23T09:54:34;14.57;;;2.17;;
75320;SDS011;68337;52.196;5.660;2024-03-23T09:57:00;8.07;;;1.98;;
75320;SDS011;68337;52.196;5.660;2024-03-23T09:59:26;7.03;;;1.95;;
75320;SDS011;68337;52.196;5.660;2024-03-23T10:01:53;7.38;;;2.28;;
75320;SDS011;68337;52.196;5.660;2024-03-23T10:04:36;6.82;;;1.60;;
75320;SDS011;68337;52.196;5.660;2024-03-23T10:07:10;5.57;;;1.63;;
75320;SDS011;68337;52.196;5.660;2024-03-23T10:09:37;7.05;;;2.10;;
75320;SDS011;68337;52.196;5.660;2024-03-23T10:12:07;9.15;;;2.47;;
75320;SDS011;68337;52.196;5.660;2024-03-23T10:14:35;9.75;;;1.90;;
75320;SDS011;68337;52.196;5.660;2024-03-23T10:17:11;9.57;;;1.75;;
75320;SDS011;68337;52.196;5.660;2024-03-23T10:19:40;6.95;;;2.00;;
75320;SDS011;68337;52.196;5.660;2024-03-23T10:22:08;6.00;;;1.75;;
75320;SDS011;68337;52.196;5.660;2024-03-23T10:24:35;4.47;;;1.25;;
75320;SDS011;68337;52.196;5.660;2024-03-23T10:27:01;4.50;;;1.85;;
75320;SDS011;68337;52.196;5.660;2024-03-23T10:29:26;9.57;;;1.77;;
75320;SDS011;68337;52.196;5.660;2024-03-23T10:31:53;8.02;;;1.88;;
75320;SDS011;68337;52.196;5.660;2024-03-23T10:34:26;3.35;;;1.15;;
75320;SDS011;68337;52.196;5.660;2024-03-23T10:36:53;12.23;;;2.13;;
75320;SDS011;68337;52.196;5.660;2024-03-23T10:39:20;10.38;;;2.10;;
75320;SDS011;68337;52.196;5.660;2024-03-23T10:41:48;8.25;;;2.20;;
75320;SDS011;68337;52.196;5.660;2024-03-23T10:44:17;9.30;;;2.03;;
75320;SDS011;68337;52.196;5.660;2024-03-23T10:46:45;11.30;;;2.20;;
75320;SDS011;68337;52.196;5.660;2024-03-23T10:49:10;9.45;;;1.95;;
75320;SDS011;68337;52.196;5.660;2024-03-23T10:51:37;12.50;;;3.20;;
75320;SDS011;68337;52.196;5.660;2024-03-23T10:54:04;10.80;;;2.25;;
75320;SDS011;68337;52.196;5.660;2024-03-23T10:56:32;11.82;;;1.90;;
75320;SDS011;68337;52.196;5.660;2024-03-23T10:59:01;11.20;;;2.67;;
75320;SDS011;68337;52.196;5.660;2024-03-23T11:01:28;12.48;;;2.00;;
75320;SDS011;68337;52.196;5.660;2024-03-23T11:03:54;9.75;;;2.53;;
75320;SDS011;68337;52.196;5.660;2024-03-23T11:06:37;8.77;;;2.53;;
75320;SDS011;68337;52.196;5.660;2024-03-23T11:09:03;8.45;;;1.88;;
75320;SDS011;68337;52.196;5.660;2024-03-23T11:11:29;6.05;;;1.42;;
75320;SDS011;68337;52.196;5.660;2024-03-23T11:13:57;15.55;;;1.95;;
75320;SDS011;68337;52.196;5.660;2024-03-23T11:16:24;7.28;;;2.47;;
75320;SDS011;68337;52.196;5.660;2024-03-23T11:21:58;7.15;;;1.88;;
75320;SDS011;68337;52.196;5.660;2024-03-23T11:24:24;10.13;;;2.20;;
75320;SDS011;68337;52.196;5.660;2024-03-23T11:26:50;8.93;;;2.13;;
75320;SDS011;68337;52.196;5.660;2024-03-23T11:29:16;10.35;;;2.03;;
75320;SDS011;68337;52.196;5.660;2024-03-23T11:31:52;7.20;;;1.90;;
75320;SDS011;68337;52.196;5.660;2024-03-23T11:34:19;10.40;;;2.60;;
75320;SDS011;68337;52.196;5.660;2024-03-23T11:36:45;7.45;;;1.83;;
75320;SDS011;68337;52.196;5.660;2024-03-23T11:39:12;12.95;;;2.45;;
75320;SDS011;68337;52.196;5.660;2024-03-23T11:46:46;8.65;;;1.90;;
75320;SDS011;68337;52.196;5.660;2024-03-23T11:51:53;8.60;;;1.90;;
75320;SDS011;68337;52.196;5.660;2024-03-23T11:54:20;9.15;;;1.98;;
75320;SDS011;68337;52.196;5.660;2024-03-23T11:59:32;9.93;;;2.40;;
75320;SDS011;68337;52.196;5.660;2024-03-23T12:01:59;8.35;;;1.85;;
75320;SDS011;68337;52.196;5.660;2024-03-23T12:04:27;9.23;;;2.42;;
75320;SDS011;68337;52.196;5.660;2024-03-23T12:07:09;7.63;;;1.98;;
75320;SDS011;68337;52.196;5.660;2024-03-23T12:09:36;5.40;;;2.05;;
75320;SDS011;68337;52.196;5.660;2024-03-23T12:12:07;5.97;;;1.45;;
75320;SDS011;68337;52.196;5.660;2024-03-23T12:14:42;5.65;;;1.42;;
75320;SDS011;68337;52.196;5.660;2024-03-23T12:17:09;9.52;;;2.17;;
75320;SDS011;68337;52.196;5.660;2024-03-23T12:19:37;6.85;;;1.58;;
75320;SDS011;68337;52.196;5.660;2024-03-23T12:22:04;7.22;;;1.80;;
75320;SDS011;68337;52.196;5.660;2024-03-23T12:24:31;7.68;;;1.52;;
75320;SDS011;68337;52.196;5.660;2024-03-23T12:26:59;4.95;;;1.63;;
75320;SDS011;68337;52.196;5.660;2024-03-23T12:29:27;5.88;;;1.80;;
75320;SDS011;68337;52.196;5.660;2024-03-23T12:31:55;8.70;;;1.88;;
75320;SDS011;68337;52.196;5.660;2024-03-23T12:34:21;7.75;;;1.60;;
75320;SDS011;68337;52.196;5.660;2024-03-23T12:36:46;6.75;;;2.00;;
75320;SDS011;68337;52.196;5.660;2024-03-23T12:39:12;10.73;;;1.98;;
75320;SDS011;68337;52.196;5.660;2024-03-23T12:41:38;8.25;;;1.95;;
75320;SDS011;68337;52.196;5.660;2024-03-23T12:44:03;6.22;;;2.13;;
75320;SDS011;68337;52.196;5.660;2024-03-23T12:46:29;12.63;;;1.90;;
75320;SDS011;68337;52.196;5.660;2024-03-23T12:48:55;4.70;;;1.42;;
75320;SDS011;68337;52.196;5.660;2024-03-23T12:51:20;3.35;;;1.38;;
75320;SDS011;68337;52.196;5.660;2024-03-23T12:53:46;5.22;;;1.48;;
75320;SDS011;68337;52.196;5.660;2024-03-23T12:56:12;11.93;;;2.50;;
75320;SDS011;68337;52.196;5.660;2024-03-23T12:58:37;6.57;;;2.22;;
75320;SDS011;68337;52.196;5.660;2024-03-23T13:01:03;5.72;;;1.50;;
75320;SDS011;68337;52.196;5.660;2024-03-23T13:03:32;9.52;;;1.90;;
75320;SDS011;68337;52.196;5.660;2024-03-23T13:05:57;5.80;;;1.60;;
75320;SDS011;68337;52.196;5.660;2024-03-23T13:08:23;9.85;;;2.03;;
75320;SDS011;68337;52.196;5.660;2024-03-23T13:10:51;5.55;;;1.30;;
75320;SDS011;68337;52.196;5.660;2024-03-23T13:13:17;9.27;;;1.90;;
75320;SDS011;68337;52.196;5.660;2024-03-23T13:15:49;7.35;;;1.70;;
75320;SDS011;68337;52.196;5.660;2024-03-23T13:18:16;7.25;;;1.50;;
75320;SDS011;68337;52.196;5.660;2024-03-23T13:20:42;7.78;;;1.75;;
75320;SDS011;68337;52.196;5.660;2024-03-23T13:23:07;9.55;;;1.85;;
75320;SDS011;68337;52.196;5.660;2024-03-23T13:25:33;12.15;;;2.10;;
75320;SDS011;68337;52.196;5.660;2024-03-23T13:27:59;6.63;;;1.95;;
75320;SDS011;68337;52.196;5.660;2024-03-23T13:30:26;9.20;;;1.75;;
75320;SDS011;68337;52.196;5.660;2024-03-23T13:32:51;10.80;;;1.98;;
75320;SDS011;68337;52.196;5.660;2024-03-23T13:35:17;4.55;;;1.25;;
75320;SDS011;68337;52.196;5.660;2024-03-23T13:37:43;10.00;;;1.60;;
75320;SDS011;68337;52.196;5.660;2024-03-23T13:40:09;6.82;;;1.63;;
75320;SDS011;68337;52.196;5.660;2024-03-23T13:42:35;5.18;;;1.80;;
75320;SDS011;68337;52.196;5.660;2024-03-23T13:45:02;9.07;;;2.53;;
75320;SDS011;68337;52.196;5.660;2024-03-23T13:47:28;9.23;;;1.70;;
75320;SDS011;68337;52.196;5.660;2024-03-23T13:49:53;3.47;;;1.30;;
75320;SDS011;68337;52.196;5.660;2024-03-23T13:52:19;11.90;;;1.45;;
75320;SDS011;68337;52.196;5.660;2024-03-23T13:54:48;5.53;;;1.73;;
75320;SDS011;68337;52.196;5.660;2024-03-23T13:57:14;3.67;;;0.60;;
75320;SDS011;68337;52.196;5.660;2024-03-23T13:59:39;0.90;;;0.50;;
75320;SDS011;68337;52.196;5.660;2024-03-23T14:02:05;0.60;;;0.60;;
75320;SDS011;68337;52.196;5.660;2024-03-23T14:04:31;2.80;;;0.73;;
75320;SDS011;68337;52.196;5.660;2024-03-23T14:06:56;5.90;;;1.17;;
75320;SDS011;68337;52.196;5.660;2024-03-23T14:09:23;2.60;;;1.00;;
75320;SDS011;68337;52.196;5.660;2024-03-23T14:11:50;3.97;;;1.42;;
75320;SDS011;68337;52.196;5.660;2024-03-23T14:14:16;5.13;;;1.20;;
75320;SDS011;68337;52.196;5.660;2024-03-23T14:16:43;4.22;;;1.10;;
75320;SDS011;68337;52.196;5.660;2024-03-23T14:19:09;4.10;;;1.48;;
75320;SDS011;68337;52.196;5.660;2024-03-23T14:21:35;6.05;;;1.00;;
75320;SDS011;68337;52.196;5.660;2024-03-23T14:24:01;4.85;;;1.30;;
75320;SDS011;68337;52.196;5.660;2024-03-23T14:26:27;4.80;;;1.85;;
75320;SDS011;68337;52.196;5.660;2024-03-23T14:28:53;7.60;;;1.73;;
75320;SDS011;68337;52.196;5.660;2024-03-23T14:31:19;6.32;;;1.45;;
75320;SDS011;68337;52.196;5.660;2024-03-23T14:33:45;6.85;;;1.80;;
75320;SDS011;68337;52.196;5.660;2024-03-23T14:36:13;9.93;;;1.85;;
75320;SDS011;68337;52.196;5.660;2024-03-23T14:38:39;9.25;;;1.75;;
75320;SDS011;68337;52.196;5.660;2024-03-23T14:41:05;8.40;;;1.60;;
75320;SDS011;68337;52.196;5.660;2024-03-23T14:43:31;8.02;;;1.85;;
75320;SDS011;68337;52.196;5.660;2024-03-23T14:46:13;9.68;;;2.20;;
75320;SDS011;68337;52.196;5.660;2024-03-23T14:48:39;4.05;;;2.22;;
75320;SDS011;68337;52.196;5.660;2024-03-23T14:51:06;6.15;;;2.15;;
75320;SDS011;68337;52.196;5.660;2024-03-23T14:53:34;6.22;;;1.60;;
75320;SDS011;68337;52.196;5.660;2024-03-23T14:56:01;6.28;;;1.85;;
75320;SDS011;68337;52.196;5.660;2024-03-23T14:58:28;8.35;;;1.60;;
75320;SDS011;68337;52.196;5.660;2024-03-23T15:00:59;4.07;;;1.48;;
75320;SDS011;68337;52.196;5.660;2024-03-23T15:03:27;5.05;;;1.65;;
75320;SDS011;68337;52.196;5.660;2024-03-23T15:05:56;6.18;;;2.08;;
75320;SDS011;68337;52.196;5.660;2024-03-23T15:08:24;5.32;;;1.92;;
75320;SDS011;68337;52.196;5.660;2024-03-23T15:10:50;4.13;;;1.50;;
75320;SDS011;68337;52.196;5.660;2024-03-23T15:13:16;3.97;;;1.70;;
75320;SDS011;68337;52.196;5.660;2024-03-23T15:15:42;3.55;;;1.60;;
75320;SDS011;68337;52.196;5.660;2024-03-23T15:18:11;6.93;;;2.28;;
75320;SDS011;68337;52.196;5.660;2024-03-23T15:20:37;6.07;;;1.55;;
75320;SDS011;68337;52.196;5.660;2024-03-23T15:23:04;5.25;;;1.50;;
75320;SDS011;68337;52.196;5.660;2024-03-23T15:25:30;9.13;;;1.60;;
75320;SDS011;68337;52.196;5.660;2024-03-23T15:27:56;4.93;;;1.35;;
75320;SDS011;68337;52.196;5.660;2024-03-23T15:30:23;5.97;;;1.73;;
75320;SDS011;68337;52.196;5.660;2024-03-23T15:32:48;7.80;;;1.60;;
75320;SDS011;68337;52.196;5.660;2024-03-23T15:35:14;6.43;;;1.70;;
75320;SDS011;68337;52.196;5.660;2024-03-23T15:37:40;4.05;;;1.30;;
75320;SDS011;68337;52.196;5.660;2024-03-23T15:40:06;8.82;;;2.28;;
75320;SDS011;68337;52.196;5.660;2024-03-23T15:42:32;11.40;;;2.50;;
75320;SDS011;68337;52.196;5.660;2024-03-23T15:44:58;8.68;;;1.73;;